RYR5397 LICA-EPMO
Flight info
| Callsign | RYR5397 |
|---|---|
| Flight time | 2h 40m |
| Altitude | 38000 |
| Route | ARBUM DCT ORTYN/N0434F390 DCT BABKO DCT LOGDA |
| Aircraft | B738/M-SDE3FGILRWY/SB1 |
Departure
| Time | 2026-04-25 09:17 |
|---|---|
| Airport | Lamezia Terme Sant'Eufemia International Airport (LICA) |
Arrival
| Time | 2026-04-25 11:57 |
|---|---|
| Airport | Warsaw Modlin Airport (EPMO) |
| Time | Latitude | Longitude | Altitude | Speed | Heading |
|---|---|---|---|---|---|
| 2026-04-25 08:59 | 38.90866 | 16.24526 | 31 ft | 0 kts | 56° |
| 2026-04-25 09:12 | 38.90866 | 16.24535 | 30 ft | 2 kts | 110° |
| 2026-04-25 09:12 | 38.90843 | 16.24536 | 31 ft | 6 kts | 186° |
| 2026-04-25 09:12 | 38.90797 | 16.24549 | 31 ft | 7 kts | 143° |
| 2026-04-25 09:13 | 38.90751 | 16.24594 | 29 ft | 10 kts | 143° |
| 2026-04-25 09:13 | 38.90711 | 16.24680 | 31 ft | 12 kts | 99° |
| 2026-04-25 09:13 | 38.90697 | 16.24803 | 31 ft | 20 kts | 98° |
| 2026-04-25 09:13 | 38.90674 | 16.24995 | 32 ft | 22 kts | 98° |
| 2026-04-25 09:14 | 38.90651 | 16.25185 | 31 ft | 21 kts | 98° |
| 2026-04-25 09:14 | 38.90630 | 16.25369 | 32 ft | 21 kts | 98° |
| 2026-04-25 09:14 | 38.90610 | 16.25548 | 32 ft | 20 kts | 98° |
| 2026-04-25 09:14 | 38.90590 | 16.25722 | 31 ft | 19 kts | 98° |
| 2026-04-25 09:15 | 38.90571 | 16.25890 | 32 ft | 19 kts | 98° |
| 2026-04-25 09:15 | 38.90552 | 16.26052 | 31 ft | 18 kts | 98° |
| 2026-04-25 09:15 | 38.90514 | 16.26179 | 29 ft | 15 kts | 144° |
| 2026-04-25 09:15 | 38.90429 | 16.26240 | 30 ft | 13 kts | 152° |
| 2026-04-25 09:16 | 38.90348 | 16.26268 | 32 ft | 12 kts | 197° |
| 2026-04-25 09:16 | 38.90313 | 16.26181 | 33 ft | 12 kts | 275° |
| 2026-04-25 09:16 | 38.90329 | 16.26046 | 31 ft | 30 kts | 278° |
| 2026-04-25 09:16 | 38.90395 | 16.25471 | 31 ft | 99 kts | 278° |
| 2026-04-25 09:17 | 38.90681 | 16.22955 | 513 ft | 161 kts | 278° |
| 2026-04-25 09:17 | 38.90853 | 16.21542 | 1258 ft | 158 kts | 277° |
| 2026-04-25 09:17 | 38.91031 | 16.20098 | 1770 ft | 171 kts | 278° |
| 2026-04-25 09:18 | 38.91217 | 16.18525 | 2216 ft | 186 kts | 278° |
| 2026-04-25 09:18 | 38.91408 | 16.16816 | 2688 ft | 200 kts | 278° |
| 2026-04-25 09:18 | 38.91603 | 16.15000 | 3143 ft | 211 kts | 278° |
| 2026-04-25 09:18 | 38.91822 | 16.13020 | 3353 ft | 238 kts | 281° |
| 2026-04-25 09:19 | 38.92388 | 16.10966 | 3726 ft | 253 kts | 303° |
| 2026-04-25 09:19 | 38.93519 | 16.09194 | 4312 ft | 261 kts | 314° |
| 2026-04-25 09:19 | 38.94786 | 16.07500 | 4994 ft | 265 kts | 315° |
| 2026-04-25 09:19 | 38.96067 | 16.05771 | 5679 ft | 269 kts | 314° |
| 2026-04-25 09:20 | 38.97335 | 16.03988 | 6425 ft | 272 kts | 313° |
| 2026-04-25 09:20 | 38.98595 | 16.02153 | 7138 ft | 275 kts | 312° |
| 2026-04-25 09:20 | 38.99857 | 16.00268 | 7863 ft | 280 kts | 311° |
| 2026-04-25 09:20 | 39.01107 | 15.98379 | 8600 ft | 283 kts | 311° |
| 2026-04-25 09:21 | 39.02386 | 15.96438 | 9352 ft | 286 kts | 311° |
| 2026-04-25 09:21 | 39.03760 | 15.94570 | 10076 ft | 290 kts | 325° |
| 2026-04-25 09:21 | 39.05558 | 15.93339 | 10594 ft | 302 kts | 336° |
| 2026-04-25 09:21 | 39.07552 | 15.92190 | 10768 ft | 326 kts | 337° |
| 2026-04-25 09:22 | 39.09682 | 15.90978 | 11141 ft | 341 kts | 336° |
| 2026-04-25 09:22 | 39.11870 | 15.89721 | 11772 ft | 347 kts | 336° |
| 2026-04-25 09:22 | 39.14081 | 15.88438 | 12513 ft | 350 kts | 336° |
| 2026-04-25 09:22 | 39.16307 | 15.87137 | 13271 ft | 353 kts | 336° |
| 2026-04-25 09:23 | 39.18551 | 15.85818 | 14017 ft | 356 kts | 336° |
| 2026-04-25 09:23 | 39.20818 | 15.84482 | 14749 ft | 360 kts | 336° |
| 2026-04-25 09:23 | 39.23111 | 15.83130 | 15486 ft | 364 kts | 336° |
| 2026-04-25 09:23 | 39.25425 | 15.81765 | 16216 ft | 367 kts | 336° |
| 2026-04-25 09:24 | 39.27857 | 15.80760 | 16882 ft | 370 kts | 354° |
| 2026-04-25 09:24 | 39.30424 | 15.80901 | 17592 ft | 370 kts | 11° |
| 2026-04-25 09:24 | 39.32952 | 15.81585 | 18298 ft | 373 kts | 13° |
| 2026-04-25 09:24 | 39.35494 | 15.82339 | 18923 ft | 377 kts | 14° |
| 2026-04-25 09:25 | 39.38063 | 15.83121 | 19537 ft | 381 kts | 14° |
| 2026-04-25 09:25 | 39.40652 | 15.83906 | 20155 ft | 385 kts | 14° |
| 2026-04-25 09:25 | 39.43275 | 15.84693 | 20763 ft | 388 kts | 14° |
| 2026-04-25 09:25 | 39.45918 | 15.85477 | 21350 ft | 391 kts | 14° |
| 2026-04-25 09:26 | 39.48549 | 15.86251 | 21901 ft | 395 kts | 14° |
| 2026-04-25 09:26 | 39.51245 | 15.87039 | 22443 ft | 398 kts | 14° |
| 2026-04-25 09:26 | 39.53965 | 15.87832 | 22971 ft | 401 kts | 14° |
| 2026-04-25 09:26 | 39.56701 | 15.88628 | 23494 ft | 404 kts | 14° |
| 2026-04-25 09:27 | 39.59458 | 15.89429 | 23999 ft | 408 kts | 14° |
| 2026-04-25 09:27 | 39.62237 | 15.90238 | 24483 ft | 411 kts | 14° |
| 2026-04-25 09:27 | 39.65038 | 15.91053 | 24960 ft | 413 kts | 14° |
| 2026-04-25 09:27 | 39.67853 | 15.91872 | 25440 ft | 416 kts | 14° |
| 2026-04-25 09:28 | 39.70684 | 15.92697 | 25899 ft | 418 kts | 14° |
| 2026-04-25 09:28 | 39.73533 | 15.93528 | 26343 ft | 421 kts | 14° |
| 2026-04-25 09:28 | 39.76399 | 15.94365 | 26767 ft | 423 kts | 14° |
| 2026-04-25 09:28 | 39.79281 | 15.95207 | 27185 ft | 425 kts | 14° |
| 2026-04-25 09:29 | 39.82178 | 15.96054 | 27577 ft | 428 kts | 14° |
| 2026-04-25 09:29 | 39.85091 | 15.96908 | 27967 ft | 430 kts | 14° |
| 2026-04-25 09:29 | 39.87981 | 15.97755 | 28350 ft | 432 kts | 14° |
| 2026-04-25 09:29 | 39.90923 | 15.98618 | 28733 ft | 434 kts | 14° |
| 2026-04-25 09:30 | 39.93880 | 15.99486 | 29089 ft | 436 kts | 14° |
| 2026-04-25 09:30 | 39.96850 | 16.00358 | 29444 ft | 438 kts | 14° |
| 2026-04-25 09:30 | 39.99833 | 16.01236 | 29780 ft | 440 kts | 14° |
| 2026-04-25 09:30 | 40.02830 | 16.02118 | 30099 ft | 442 kts | 14° |
| 2026-04-25 09:31 | 40.05847 | 16.03006 | 30423 ft | 444 kts | 14° |
| 2026-04-25 09:31 | 40.07847 | 16.03596 | 30676 ft | 444 kts | 14° |
| 2026-04-25 09:31 | 40.11868 | 16.04782 | 31265 ft | 441 kts | 14° |
| 2026-04-25 09:31 | 40.14858 | 16.05664 | 31691 ft | 440 kts | 14° |
| 2026-04-25 09:32 | 40.17845 | 16.06547 | 32069 ft | 440 kts | 14° |
| 2026-04-25 09:32 | 40.20826 | 16.07430 | 32447 ft | 439 kts | 14° |
| 2026-04-25 09:32 | 40.23799 | 16.08310 | 32852 ft | 437 kts | 14° |
| 2026-04-25 09:32 | 40.26770 | 16.09191 | 33229 ft | 436 kts | 14° |
| 2026-04-25 09:33 | 40.29697 | 16.10060 | 33551 ft | 436 kts | 14° |
| 2026-04-25 09:33 | 40.32663 | 16.10941 | 33881 ft | 436 kts | 14° |
| 2026-04-25 09:33 | 40.35617 | 16.11819 | 34246 ft | 434 kts | 14° |
| 2026-04-25 09:33 | 40.38561 | 16.12694 | 34589 ft | 433 kts | 14° |
| 2026-04-25 09:34 | 40.41505 | 16.13571 | 34856 ft | 434 kts | 14° |
| 2026-04-25 09:34 | 40.44449 | 16.14449 | 35119 ft | 435 kts | 14° |
| 2026-04-25 09:34 | 40.47398 | 16.15329 | 35433 ft | 434 kts | 14° |
| 2026-04-25 09:34 | 40.50345 | 16.16209 | 35747 ft | 433 kts | 14° |
| 2026-04-25 09:35 | 40.53284 | 16.17088 | 36015 ft | 433 kts | 14° |
| 2026-04-25 09:35 | 40.56191 | 16.17957 | 36265 ft | 433 kts | 14° |
| 2026-04-25 09:35 | 40.59133 | 16.18838 | 36522 ft | 433 kts | 14° |
| 2026-04-25 09:35 | 40.62078 | 16.19721 | 36746 ft | 434 kts | 14° |
| 2026-04-25 09:36 | 40.65018 | 16.20603 | 37018 ft | 433 kts | 14° |
| 2026-04-25 09:36 | 40.67957 | 16.21485 | 37328 ft | 431 kts | 14° |
| 2026-04-25 09:36 | 40.70882 | 16.22363 | 37635 ft | 429 kts | 14° |
| 2026-04-25 09:36 | 40.73784 | 16.23236 | 37894 ft | 428 kts | 14° |
| 2026-04-25 09:37 | 40.76691 | 16.24111 | 38097 ft | 428 kts | 14° |
| 2026-04-25 09:37 | 40.82545 | 16.25877 | 38102 ft | 432 kts | 14° |
| 2026-04-25 09:38 | 40.88360 | 16.27632 | 38091 ft | 424 kts | 14° |
| 2026-04-25 09:38 | 40.94077 | 16.29361 | 38101 ft | 421 kts | 14° |
| 2026-04-25 09:39 | 40.99748 | 16.31080 | 38102 ft | 421 kts | 14° |
| 2026-04-25 09:39 | 41.05468 | 16.32817 | 38106 ft | 421 kts | 14° |
| 2026-04-25 09:40 | 41.14038 | 16.35425 | 38115 ft | 422 kts | 14° |
| 2026-04-25 09:40 | 41.19770 | 16.37173 | 38112 ft | 422 kts | 14° |
| 2026-04-25 09:41 | 41.25505 | 16.38926 | 38112 ft | 423 kts | 14° |
| 2026-04-25 09:41 | 41.31249 | 16.40684 | 38110 ft | 424 kts | 14° |
| 2026-04-25 09:42 | 41.36963 | 16.42435 | 38112 ft | 424 kts | 14° |
| 2026-04-25 09:42 | 41.42714 | 16.44202 | 38111 ft | 424 kts | 14° |
| 2026-04-25 09:43 | 41.48470 | 16.45973 | 38104 ft | 424 kts | 14° |
| 2026-04-25 09:43 | 41.54222 | 16.47747 | 38099 ft | 424 kts | 14° |
| 2026-04-25 09:44 | 41.58999 | 16.49222 | 38103 ft | 424 kts | 14° |
| 2026-04-25 09:44 | 41.64752 | 16.51001 | 38099 ft | 423 kts | 14° |
| 2026-04-25 09:45 | 41.70480 | 16.52776 | 38100 ft | 423 kts | 14° |
| 2026-04-25 09:45 | 41.76220 | 16.54558 | 38104 ft | 422 kts | 14° |
| 2026-04-25 09:46 | 41.81903 | 16.56326 | 38100 ft | 422 kts | 14° |
| 2026-04-25 09:46 | 41.87623 | 16.58108 | 38103 ft | 421 kts | 14° |
| 2026-04-25 09:47 | 41.93339 | 16.59892 | 38102 ft | 421 kts | 14° |
| 2026-04-25 09:47 | 41.99044 | 16.61677 | 38105 ft | 421 kts | 14° |
| 2026-04-25 09:48 | 42.04747 | 16.63464 | 38104 ft | 421 kts | 14° |
| 2026-04-25 09:48 | 42.10449 | 16.65254 | 38100 ft | 421 kts | 14° |
| 2026-04-25 09:49 | 42.16126 | 16.67039 | 38100 ft | 421 kts | 14° |
| 2026-04-25 09:49 | 42.21835 | 16.68838 | 38101 ft | 421 kts | 14° |
| 2026-04-25 09:50 | 42.27533 | 16.70636 | 38101 ft | 421 kts | 14° |
| 2026-04-25 09:50 | 42.33240 | 16.72441 | 38100 ft | 421 kts | 14° |
| 2026-04-25 09:51 | 42.38956 | 16.74252 | 38105 ft | 421 kts | 14° |
| 2026-04-25 09:51 | 42.44668 | 16.76065 | 38104 ft | 422 kts | 14° |
| 2026-04-25 09:52 | 42.50381 | 16.77882 | 38100 ft | 422 kts | 14° |
| 2026-04-25 09:52 | 42.56097 | 16.79703 | 38090 ft | 422 kts | 14° |
| 2026-04-25 09:53 | 42.61777 | 16.81516 | 38091 ft | 422 kts | 14° |
| 2026-04-25 09:53 | 42.67532 | 16.83357 | 38093 ft | 422 kts | 14° |
| 2026-04-25 09:54 | 42.73210 | 16.85176 | 38090 ft | 422 kts | 14° |
| 2026-04-25 09:54 | 42.78926 | 16.87011 | 38093 ft | 422 kts | 14° |
| 2026-04-25 09:55 | 42.84650 | 16.88852 | 38092 ft | 422 kts | 14° |
| 2026-04-25 09:55 | 42.90364 | 16.90693 | 38094 ft | 422 kts | 14° |
| 2026-04-25 09:56 | 42.96084 | 16.92540 | 38086 ft | 422 kts | 14° |
| 2026-04-25 09:56 | 43.01796 | 16.94388 | 38092 ft | 422 kts | 13° |
| 2026-04-25 09:57 | 43.07465 | 16.96225 | 38096 ft | 421 kts | 13° |
| 2026-04-25 09:57 | 43.13166 | 16.98076 | 38102 ft | 421 kts | 13° |
| 2026-04-25 09:58 | 43.18867 | 16.99931 | 38099 ft | 421 kts | 13° |
| 2026-04-25 09:58 | 43.24567 | 17.01789 | 38104 ft | 421 kts | 13° |
| 2026-04-25 09:59 | 43.30268 | 17.03651 | 38100 ft | 421 kts | 13° |
| 2026-04-25 09:59 | 43.35969 | 17.05516 | 38098 ft | 421 kts | 13° |
| 2026-04-25 10:00 | 43.41670 | 17.07385 | 38095 ft | 422 kts | 13° |
| 2026-04-25 10:00 | 43.47390 | 17.09264 | 38092 ft | 422 kts | 13° |
| 2026-04-25 10:01 | 43.53069 | 17.11133 | 38089 ft | 422 kts | 13° |
| 2026-04-25 10:01 | 43.58792 | 17.13021 | 38091 ft | 422 kts | 13° |
| 2026-04-25 10:02 | 43.64504 | 17.14908 | 38096 ft | 422 kts | 13° |
| 2026-04-25 10:02 | 43.70231 | 17.16804 | 38095 ft | 422 kts | 13° |
| 2026-04-25 10:03 | 43.75915 | 17.18689 | 38088 ft | 422 kts | 13° |
| 2026-04-25 10:03 | 43.81627 | 17.20588 | 38097 ft | 422 kts | 13° |
| 2026-04-25 10:04 | 43.87346 | 17.22492 | 38093 ft | 422 kts | 13° |
| 2026-04-25 10:04 | 43.93064 | 17.24400 | 38080 ft | 422 kts | 13° |
| 2026-04-25 10:05 | 43.98779 | 17.26311 | 38080 ft | 422 kts | 13° |
| 2026-04-25 10:05 | 44.04451 | 17.28211 | 38082 ft | 421 kts | 13° |
| 2026-04-25 10:06 | 44.10151 | 17.30125 | 38089 ft | 421 kts | 13° |
| 2026-04-25 10:06 | 44.15863 | 17.32046 | 38086 ft | 421 kts | 13° |
| 2026-04-25 10:07 | 44.21522 | 17.33952 | 38081 ft | 421 kts | 13° |
| 2026-04-25 10:07 | 44.27249 | 17.35886 | 38092 ft | 421 kts | 13° |
| 2026-04-25 10:08 | 44.32912 | 17.37802 | 38091 ft | 421 kts | 13° |
| 2026-04-25 10:08 | 44.38614 | 17.39735 | 38094 ft | 421 kts | 13° |
| 2026-04-25 10:09 | 44.44316 | 17.41672 | 38096 ft | 422 kts | 13° |
| 2026-04-25 10:09 | 44.50021 | 17.43614 | 38086 ft | 422 kts | 13° |
| 2026-04-25 10:10 | 44.55733 | 17.45563 | 38086 ft | 422 kts | 13° |
| 2026-04-25 10:10 | 44.61415 | 17.47504 | 38088 ft | 423 kts | 13° |
| 2026-04-25 10:11 | 44.67137 | 17.49464 | 38082 ft | 422 kts | 13° |
| 2026-04-25 10:11 | 44.72848 | 17.51423 | 38082 ft | 422 kts | 13° |
| 2026-04-25 10:12 | 44.78561 | 17.53388 | 38074 ft | 423 kts | 13° |
| 2026-04-25 10:13 | 44.87142 | 17.56346 | 38075 ft | 422 kts | 13° |
| 2026-04-25 10:13 | 44.92846 | 17.58317 | 38072 ft | 422 kts | 13° |
| 2026-04-25 10:14 | 44.98554 | 17.60294 | 38075 ft | 422 kts | 12° |
| 2026-04-25 10:14 | 45.04227 | 17.62263 | 38078 ft | 422 kts | 12° |
| 2026-04-25 10:15 | 45.09930 | 17.64246 | 38072 ft | 422 kts | 12° |
| 2026-04-25 10:15 | 45.15640 | 17.66235 | 38074 ft | 422 kts | 12° |
| 2026-04-25 10:16 | 45.21340 | 17.68226 | 38074 ft | 422 kts | 12° |
| 2026-04-25 10:16 | 45.27041 | 17.70220 | 38084 ft | 421 kts | 12° |
| 2026-04-25 10:17 | 45.32735 | 17.72217 | 38088 ft | 421 kts | 12° |
| 2026-04-25 10:17 | 45.38391 | 17.74204 | 38081 ft | 422 kts | 12° |
| 2026-04-25 10:18 | 45.44099 | 17.76213 | 38084 ft | 422 kts | 12° |
| 2026-04-25 10:18 | 45.49790 | 17.78221 | 38082 ft | 422 kts | 12° |
| 2026-04-25 10:19 | 45.55496 | 17.80238 | 38075 ft | 422 kts | 12° |
| 2026-04-25 10:19 | 45.61173 | 17.82250 | 38073 ft | 422 kts | 12° |
| 2026-04-25 10:20 | 45.66880 | 17.84276 | 38072 ft | 422 kts | 12° |
| 2026-04-25 10:20 | 45.72588 | 17.86306 | 38074 ft | 422 kts | 12° |
| 2026-04-25 10:21 | 45.78291 | 17.88339 | 38075 ft | 422 kts | 12° |
| 2026-04-25 10:21 | 45.83991 | 17.90376 | 38072 ft | 422 kts | 12° |
| 2026-04-25 10:22 | 45.89689 | 17.92416 | 38075 ft | 422 kts | 12° |
| 2026-04-25 10:22 | 45.95385 | 17.94460 | 38074 ft | 422 kts | 12° |
| 2026-04-25 10:23 | 46.01081 | 17.96508 | 38072 ft | 422 kts | 12° |
| 2026-04-25 10:23 | 46.06767 | 17.98557 | 38077 ft | 421 kts | 12° |
| 2026-04-25 10:24 | 46.12426 | 18.00599 | 38072 ft | 422 kts | 12° |
| 2026-04-25 10:24 | 46.18124 | 18.02662 | 38075 ft | 422 kts | 12° |
| 2026-04-25 10:25 | 46.23822 | 18.04727 | 38074 ft | 422 kts | 12° |
| 2026-04-25 10:25 | 46.29514 | 18.06796 | 38075 ft | 422 kts | 12° |
| 2026-04-25 10:26 | 46.35169 | 18.08855 | 38076 ft | 421 kts | 12° |
| 2026-04-25 10:26 | 46.40853 | 18.10930 | 38072 ft | 421 kts | 12° |
| 2026-04-25 10:27 | 46.46547 | 18.13012 | 38073 ft | 421 kts | 12° |
| 2026-04-25 10:27 | 46.52230 | 18.15095 | 38076 ft | 421 kts | 12° |
| 2026-04-25 10:28 | 46.57914 | 18.17183 | 38073 ft | 421 kts | 12° |
| 2026-04-25 10:28 | 46.63597 | 18.19275 | 38069 ft | 421 kts | 12° |
| 2026-04-25 10:29 | 46.69284 | 18.21373 | 38064 ft | 421 kts | 12° |
| 2026-04-25 10:29 | 46.74964 | 18.23473 | 38065 ft | 421 kts | 12° |
| 2026-04-25 10:30 | 46.80655 | 18.25581 | 38066 ft | 421 kts | 12° |
| 2026-04-25 10:30 | 46.86344 | 18.27694 | 38063 ft | 422 kts | 12° |
| 2026-04-25 10:31 | 46.92004 | 18.29800 | 38051 ft | 422 kts | 12° |
| 2026-04-25 10:31 | 46.97710 | 18.31928 | 38043 ft | 422 kts | 12° |
| 2026-04-25 10:32 | 47.03399 | 18.34055 | 38036 ft | 422 kts | 12° |
| 2026-04-25 10:32 | 47.08140 | 18.35830 | 38037 ft | 422 kts | 11° |
| 2026-04-25 10:33 | 47.13831 | 18.37966 | 38038 ft | 422 kts | 11° |
| 2026-04-25 10:33 | 47.19527 | 18.40109 | 38037 ft | 422 kts | 11° |
| 2026-04-25 10:34 | 47.25186 | 18.42242 | 38035 ft | 422 kts | 11° |
| 2026-04-25 10:34 | 47.30881 | 18.44393 | 38037 ft | 422 kts | 11° |
| 2026-04-25 10:35 | 47.36569 | 18.46547 | 38037 ft | 422 kts | 11° |
| 2026-04-25 10:35 | 47.42255 | 18.48705 | 38040 ft | 422 kts | 11° |
| 2026-04-25 10:36 | 47.47942 | 18.50868 | 38046 ft | 422 kts | 11° |
| 2026-04-25 10:36 | 47.53629 | 18.53035 | 38049 ft | 422 kts | 11° |
| 2026-04-25 10:37 | 47.59283 | 18.55195 | 38046 ft | 422 kts | 11° |
| 2026-04-25 10:37 | 47.64973 | 18.57374 | 38046 ft | 422 kts | 11° |
| 2026-04-25 10:38 | 47.70673 | 18.59561 | 38039 ft | 423 kts | 11° |
| 2026-04-25 10:38 | 47.76383 | 18.61757 | 38036 ft | 423 kts | 11° |
| 2026-04-25 10:39 | 47.82052 | 18.63942 | 38037 ft | 423 kts | 11° |
| 2026-04-25 10:39 | 47.87751 | 18.66144 | 38036 ft | 423 kts | 11° |
| 2026-04-25 10:40 | 47.93452 | 18.68352 | 38034 ft | 423 kts | 11° |
| 2026-04-25 10:40 | 47.99152 | 18.70565 | 38037 ft | 423 kts | 11° |
| 2026-04-25 10:41 | 48.04849 | 18.72781 | 38035 ft | 424 kts | 11° |
| 2026-04-25 10:41 | 48.10564 | 18.75009 | 38035 ft | 424 kts | 11° |
| 2026-04-25 10:42 | 48.16272 | 18.77240 | 38035 ft | 424 kts | 11° |
| 2026-04-25 10:42 | 48.21986 | 18.79477 | 38028 ft | 424 kts | 11° |
| 2026-04-25 10:43 | 48.27657 | 18.81704 | 38014 ft | 424 kts | 11° |
| 2026-04-25 10:43 | 48.33368 | 18.83952 | 38008 ft | 424 kts | 11° |
| 2026-04-25 10:44 | 48.39081 | 18.86205 | 38007 ft | 424 kts | 11° |
| 2026-04-25 10:44 | 48.44791 | 18.88463 | 37997 ft | 424 kts | 11° |
| 2026-04-25 10:45 | 48.50501 | 18.90726 | 38000 ft | 423 kts | 11° |
| 2026-04-25 10:45 | 48.56167 | 18.92977 | 38004 ft | 423 kts | 11° |
| 2026-04-25 10:46 | 48.61897 | 18.95257 | 37993 ft | 423 kts | 11° |
| 2026-04-25 10:46 | 48.67563 | 18.97517 | 37987 ft | 423 kts | 11° |
| 2026-04-25 10:47 | 48.73259 | 18.99796 | 37994 ft | 423 kts | 11° |
| 2026-04-25 10:47 | 48.78947 | 19.02077 | 37989 ft | 422 kts | 11° |
| 2026-04-25 10:48 | 48.84627 | 19.04359 | 37986 ft | 422 kts | 11° |
| 2026-04-25 10:48 | 48.90307 | 19.06647 | 37989 ft | 423 kts | 11° |
| 2026-04-25 10:49 | 48.95997 | 19.08944 | 37984 ft | 423 kts | 11° |
| 2026-04-25 10:49 | 49.01690 | 19.11248 | 37990 ft | 423 kts | 11° |
| 2026-04-25 10:50 | 49.07373 | 19.13554 | 37992 ft | 422 kts | 11° |
| 2026-04-25 10:50 | 49.13017 | 19.15851 | 37980 ft | 423 kts | 11° |
| 2026-04-25 10:51 | 49.18691 | 19.18207 | 37996 ft | 423 kts | 11° |
| 2026-04-25 10:51 | 49.24391 | 19.20492 | 37981 ft | 423 kts | 11° |
| 2026-04-25 10:52 | 49.30081 | 19.22833 | 37988 ft | 424 kts | 13° |
| 2026-04-25 10:52 | 49.35520 | 19.26537 | 37989 ft | 430 kts | 23° |
| 2026-04-25 10:53 | 49.40824 | 19.30805 | 37965 ft | 431 kts | 24° |
| 2026-04-25 10:53 | 49.46151 | 19.35043 | 37982 ft | 431 kts | 23° |
| 2026-04-25 10:54 | 49.51494 | 19.39248 | 37963 ft | 431 kts | 23° |
| 2026-04-25 10:54 | 49.56835 | 19.43452 | 37972 ft | 432 kts | 23° |
| 2026-04-25 10:55 | 49.62162 | 19.47647 | 37965 ft | 431 kts | 22° |
| 2026-04-25 10:55 | 49.67589 | 19.51547 | 37980 ft | 429 kts | 20° |
| 2026-04-25 10:56 | 49.73046 | 19.55328 | 37971 ft | 430 kts | 20° |
| 2026-04-25 10:56 | 49.78499 | 19.59146 | 37955 ft | 430 kts | 20° |
| 2026-04-25 10:57 | 49.83940 | 19.62999 | 37956 ft | 430 kts | 20° |
| 2026-04-25 10:57 | 49.89377 | 19.66874 | 37961 ft | 429 kts | 20° |
| 2026-04-25 10:58 | 49.94774 | 19.70732 | 37962 ft | 429 kts | 20° |
| 2026-04-25 10:58 | 50.00189 | 19.74613 | 37960 ft | 429 kts | 20° |
| 2026-04-25 10:59 | 50.05606 | 19.78503 | 37962 ft | 428 kts | 20° |
| 2026-04-25 10:59 | 50.11015 | 19.82398 | 37959 ft | 428 kts | 20° |
| 2026-04-25 11:00 | 50.16419 | 19.86298 | 37966 ft | 428 kts | 21° |
| 2026-04-25 11:00 | 50.21835 | 19.90216 | 37567 ft | 433 kts | 21° |
| 2026-04-25 11:00 | 50.24553 | 19.92186 | 37254 ft | 427 kts | 20° |
| 2026-04-25 11:01 | 50.27245 | 19.94144 | 36843 ft | 424 kts | 20° |
| 2026-04-25 11:01 | 50.29910 | 19.96083 | 36467 ft | 420 kts | 20° |
| 2026-04-25 11:01 | 50.32509 | 19.97976 | 36091 ft | 416 kts | 20° |
| 2026-04-25 11:01 | 50.35128 | 19.99885 | 35707 ft | 413 kts | 20° |
| 2026-04-25 11:02 | 50.37723 | 20.01778 | 35314 ft | 411 kts | 20° |
| 2026-04-25 11:02 | 50.40305 | 20.03664 | 34927 ft | 408 kts | 20° |
| 2026-04-25 11:02 | 50.42870 | 20.05538 | 34539 ft | 405 kts | 20° |
| 2026-04-25 11:02 | 50.45417 | 20.07403 | 34158 ft | 403 kts | 20° |
| 2026-04-25 11:03 | 50.47949 | 20.09259 | 33766 ft | 400 kts | 20° |
| 2026-04-25 11:03 | 50.50472 | 20.11110 | 33394 ft | 398 kts | 20° |
| 2026-04-25 11:03 | 50.52979 | 20.12951 | 33016 ft | 396 kts | 20° |
| 2026-04-25 11:03 | 50.55466 | 20.14781 | 32637 ft | 393 kts | 20° |
| 2026-04-25 11:04 | 50.57942 | 20.16604 | 32262 ft | 391 kts | 20° |
| 2026-04-25 11:04 | 50.60403 | 20.18417 | 31887 ft | 389 kts | 20° |
| 2026-04-25 11:04 | 50.62817 | 20.20200 | 31521 ft | 387 kts | 20° |
| 2026-04-25 11:04 | 50.64465 | 20.21417 | 31268 ft | 386 kts | 20° |
| 2026-04-25 11:05 | 50.67673 | 20.23789 | 30778 ft | 383 kts | 20° |
| 2026-04-25 11:05 | 50.70086 | 20.25577 | 30414 ft | 381 kts | 20° |
| 2026-04-25 11:05 | 50.72482 | 20.27353 | 30047 ft | 379 kts | 20° |
| 2026-04-25 11:05 | 50.74871 | 20.29127 | 29677 ft | 378 kts | 20° |
| 2026-04-25 11:06 | 50.77245 | 20.30891 | 29307 ft | 376 kts | 20° |
| 2026-04-25 11:06 | 50.79609 | 20.32649 | 28923 ft | 375 kts | 21° |
| 2026-04-25 11:06 | 50.81970 | 20.34407 | 28543 ft | 374 kts | 21° |
| 2026-04-25 11:06 | 50.84281 | 20.36131 | 28153 ft | 373 kts | 21° |
| 2026-04-25 11:07 | 50.86625 | 20.37880 | 27776 ft | 371 kts | 21° |
| 2026-04-25 11:07 | 50.88959 | 20.39624 | 27396 ft | 370 kts | 21° |
| 2026-04-25 11:07 | 50.91288 | 20.41366 | 27018 ft | 369 kts | 21° |
| 2026-04-25 11:07 | 50.93608 | 20.43104 | 26634 ft | 368 kts | 21° |
| 2026-04-25 11:08 | 50.95925 | 20.44841 | 26250 ft | 367 kts | 21° |
| 2026-04-25 11:08 | 50.98234 | 20.46575 | 25869 ft | 367 kts | 21° |
| 2026-04-25 11:08 | 51.00537 | 20.48305 | 25484 ft | 366 kts | 21° |
| 2026-04-25 11:08 | 51.02835 | 20.50034 | 25107 ft | 365 kts | 21° |
| 2026-04-25 11:09 | 51.05126 | 20.51760 | 24728 ft | 364 kts | 21° |
| 2026-04-25 11:09 | 51.07417 | 20.53487 | 24344 ft | 363 kts | 22° |
| 2026-04-25 11:09 | 51.09697 | 20.55209 | 23951 ft | 362 kts | 22° |
| 2026-04-25 11:09 | 51.11967 | 20.56924 | 23579 ft | 361 kts | 22° |
| 2026-04-25 11:10 | 51.14235 | 20.58640 | 23209 ft | 360 kts | 22° |
| 2026-04-25 11:10 | 51.15735 | 20.59775 | 22958 ft | 360 kts | 22° |
| 2026-04-25 11:10 | 51.18727 | 20.62044 | 22461 ft | 358 kts | 22° |
| 2026-04-25 11:10 | 51.20976 | 20.63751 | 22092 ft | 357 kts | 22° |
| 2026-04-25 11:11 | 51.23213 | 20.65451 | 21718 ft | 356 kts | 22° |
| 2026-04-25 11:11 | 51.25445 | 20.67148 | 21361 ft | 354 kts | 22° |
| 2026-04-25 11:11 | 51.27668 | 20.68844 | 20996 ft | 353 kts | 23° |
| 2026-04-25 11:11 | 51.29711 | 20.71031 | 20695 ft | 354 kts | 38° |
| 2026-04-25 11:12 | 51.31510 | 20.73663 | 20464 ft | 349 kts | 40° |
| 2026-04-25 11:12 | 51.33259 | 20.76312 | 20209 ft | 343 kts | 40° |
| 2026-04-25 11:12 | 51.34979 | 20.78922 | 19966 ft | 338 kts | 40° |
| 2026-04-25 11:12 | 51.36683 | 20.81489 | 19729 ft | 335 kts | 39° |
| 2026-04-25 11:13 | 51.38386 | 20.84033 | 19500 ft | 334 kts | 39° |
| 2026-04-25 11:13 | 51.40080 | 20.86552 | 19265 ft | 332 kts | 39° |
| 2026-04-25 11:13 | 51.41773 | 20.89061 | 19033 ft | 331 kts | 39° |
| 2026-04-25 11:13 | 51.43458 | 20.91557 | 18796 ft | 329 kts | 39° |
| 2026-04-25 11:14 | 51.45138 | 20.94045 | 18565 ft | 328 kts | 39° |
| 2026-04-25 11:14 | 51.46810 | 20.96522 | 18326 ft | 326 kts | 39° |
| 2026-04-25 11:14 | 51.48475 | 20.98991 | 18100 ft | 325 kts | 39° |
| 2026-04-25 11:14 | 51.50132 | 21.01451 | 17877 ft | 324 kts | 39° |
| 2026-04-25 11:15 | 51.51762 | 21.03873 | 17635 ft | 323 kts | 39° |
| 2026-04-25 11:15 | 51.53411 | 21.06325 | 17428 ft | 322 kts | 39° |
| 2026-04-25 11:15 | 51.55051 | 21.08766 | 17192 ft | 321 kts | 39° |
| 2026-04-25 11:15 | 51.56689 | 21.11206 | 16964 ft | 320 kts | 39° |
| 2026-04-25 11:16 | 51.59944 | 21.16065 | 16514 ft | 318 kts | 39° |
| 2026-04-25 11:16 | 51.61562 | 21.18483 | 16298 ft | 317 kts | 39° |
| 2026-04-25 11:16 | 51.63173 | 21.20897 | 16070 ft | 316 kts | 39° |
| 2026-04-25 11:17 | 51.64778 | 21.23304 | 15848 ft | 315 kts | 39° |
| 2026-04-25 11:17 | 51.66361 | 21.25682 | 15633 ft | 314 kts | 39° |
| 2026-04-25 11:17 | 51.67979 | 21.28114 | 15401 ft | 313 kts | 39° |
| 2026-04-25 11:17 | 51.69549 | 21.30477 | 15180 ft | 313 kts | 39° |
| 2026-04-25 11:18 | 51.71136 | 21.32868 | 14962 ft | 312 kts | 39° |
| 2026-04-25 11:18 | 51.72718 | 21.35254 | 14736 ft | 311 kts | 39° |
| 2026-04-25 11:18 | 51.74295 | 21.37635 | 14518 ft | 310 kts | 39° |
| 2026-04-25 11:18 | 51.75867 | 21.40010 | 14294 ft | 309 kts | 39° |
| 2026-04-25 11:19 | 51.77435 | 21.42382 | 14074 ft | 308 kts | 39° |
| 2026-04-25 11:19 | 51.78997 | 21.44746 | 13857 ft | 307 kts | 39° |
| 2026-04-25 11:19 | 51.80556 | 21.47110 | 13640 ft | 306 kts | 39° |
| 2026-04-25 11:19 | 51.82106 | 21.49461 | 13425 ft | 305 kts | 40° |
| 2026-04-25 11:20 | 51.83650 | 21.51807 | 13214 ft | 304 kts | 40° |
| 2026-04-25 11:20 | 51.85190 | 21.54146 | 12993 ft | 303 kts | 39° |
| 2026-04-25 11:20 | 51.86894 | 21.56021 | 12709 ft | 293 kts | 14° |
| 2026-04-25 11:20 | 51.88203 | 21.56349 | 12500 ft | 285 kts | 353° |
| 2026-04-25 11:21 | 51.90676 | 21.55239 | 12113 ft | 277 kts | 332° |
| 2026-04-25 11:21 | 51.92349 | 21.53697 | 11767 ft | 276 kts | 327° |
| 2026-04-25 11:21 | 51.93978 | 21.52039 | 11428 ft | 276 kts | 326° |
| 2026-04-25 11:21 | 51.95597 | 21.50364 | 11129 ft | 275 kts | 326° |
| 2026-04-25 11:22 | 51.96685 | 21.49240 | 10912 ft | 275 kts | 326° |
| 2026-04-25 11:22 | 51.98275 | 21.47605 | 10608 ft | 274 kts | 326° |
| 2026-04-25 11:22 | 51.99906 | 21.45936 | 10284 ft | 273 kts | 326° |
| 2026-04-25 11:22 | 52.01512 | 21.44301 | 10019 ft | 271 kts | 326° |
| 2026-04-25 11:23 | 52.03094 | 21.42695 | 9821 ft | 266 kts | 326° |
| 2026-04-25 11:23 | 52.04638 | 21.41129 | 9540 ft | 265 kts | 326° |
| 2026-04-25 11:23 | 52.06204 | 21.39542 | 9243 ft | 265 kts | 326° |
| 2026-04-25 11:23 | 52.07762 | 21.37963 | 9024 ft | 263 kts | 326° |
| 2026-04-25 11:24 | 52.09313 | 21.36390 | 8809 ft | 263 kts | 326° |
| 2026-04-25 11:24 | 52.09510 | 21.36191 | 8783 ft | 263 kts | 326° |
| 2026-04-25 11:24 | 52.10208 | 21.35484 | 8688 ft | 263 kts | 326° |
| 2026-04-25 11:24 | 52.11764 | 21.33905 | 8459 ft | 264 kts | 326° |
| 2026-04-25 11:25 | 52.13326 | 21.32321 | 8254 ft | 264 kts | 326° |
| 2026-04-25 11:25 | 52.14888 | 21.30736 | 8036 ft | 264 kts | 326° |
| 2026-04-25 11:25 | 52.16445 | 21.29154 | 7838 ft | 262 kts | 326° |
| 2026-04-25 11:25 | 52.17985 | 21.27588 | 7621 ft | 259 kts | 326° |
| 2026-04-25 11:26 | 52.19510 | 21.26038 | 7416 ft | 258 kts | 326° |
| 2026-04-25 11:26 | 52.21035 | 21.24485 | 7217 ft | 259 kts | 326° |
| 2026-04-25 11:26 | 52.22562 | 21.22929 | 6998 ft | 259 kts | 326° |
| 2026-04-25 11:26 | 52.24084 | 21.21378 | 6893 ft | 254 kts | 326° |
| 2026-04-25 11:27 | 52.25578 | 21.19854 | 6730 ft | 253 kts | 325° |
| 2026-04-25 11:27 | 52.27067 | 21.18333 | 6554 ft | 252 kts | 325° |
| 2026-04-25 11:27 | 52.28555 | 21.16811 | 6350 ft | 251 kts | 325° |
| 2026-04-25 11:27 | 52.29530 | 21.15814 | 6226 ft | 249 kts | 325° |
| 2026-04-25 11:28 | 52.31479 | 21.13819 | 5969 ft | 245 kts | 325° |
| 2026-04-25 11:28 | 52.32908 | 21.12357 | 5772 ft | 241 kts | 325° |
| 2026-04-25 11:28 | 52.34320 | 21.10909 | 5568 ft | 238 kts | 325° |
| 2026-04-25 11:28 | 52.35698 | 21.09495 | 5379 ft | 235 kts | 325° |
| 2026-04-25 11:29 | 52.37067 | 21.08088 | 5200 ft | 231 kts | 325° |
| 2026-04-25 11:29 | 52.38422 | 21.06695 | 5016 ft | 229 kts | 325° |
| 2026-04-25 11:29 | 52.39770 | 21.05308 | 4842 ft | 229 kts | 325° |
| 2026-04-25 11:29 | 52.41117 | 21.03923 | 4656 ft | 226 kts | 325° |
| 2026-04-25 11:30 | 52.42442 | 21.02558 | 4482 ft | 224 kts | 325° |
| 2026-04-25 11:30 | 52.43750 | 21.01210 | 4302 ft | 220 kts | 325° |
| 2026-04-25 11:30 | 52.45037 | 20.99883 | 4133 ft | 217 kts | 325° |
| 2026-04-25 11:30 | 52.46311 | 20.98568 | 3960 ft | 215 kts | 325° |
| 2026-04-25 11:31 | 52.46322 | 20.98557 | 3958 ft | 215 kts | 325° |
| 2026-04-25 11:52 | 52.47301 | 20.97302 | 3803 ft | 211 kts | 305° |
| 2026-04-25 11:53 | 52.47806 | 20.95168 | 3679 ft | 198 kts | 275° |
| 2026-04-25 11:53 | 52.47742 | 20.92936 | 3527 ft | 197 kts | 261° |
| 2026-04-25 11:53 | 52.47521 | 20.90693 | 3344 ft | 200 kts | 261° |
| 2026-04-25 11:53 | 52.47306 | 20.88470 | 3159 ft | 193 kts | 261° |
| 2026-04-25 11:54 | 52.47103 | 20.86346 | 2996 ft | 185 kts | 261° |
| 2026-04-25 11:54 | 52.46905 | 20.84259 | 2740 ft | 184 kts | 261° |
| 2026-04-25 11:54 | 52.46520 | 20.80136 | 2213 ft | 181 kts | 261° |
| 2026-04-25 11:55 | 52.46337 | 20.78154 | 1942 ft | 170 kts | 261° |
| 2026-04-25 11:55 | 52.46168 | 20.76339 | 1718 ft | 152 kts | 260° |
| 2026-04-25 11:55 | 52.46016 | 20.74703 | 1442 ft | 139 kts | 260° |
| 2026-04-25 11:55 | 52.45872 | 20.73162 | 1244 ft | 136 kts | 260° |
| 2026-04-25 11:56 | 52.45723 | 20.71600 | 923 ft | 139 kts | 259° |
| 2026-04-25 11:56 | 52.45561 | 20.70081 | 714 ft | 136 kts | 260° |
| 2026-04-25 11:56 | 52.45431 | 20.68522 | 551 ft | 141 kts | 262° |
| 2026-04-25 11:56 | 52.45287 | 20.66961 | 367 ft | 135 kts | 260° |
| 2026-04-25 11:57 | 52.45153 | 20.65542 | 336 ft | 108 kts | 262° |
| 2026-04-25 11:57 | 52.45070 | 20.64645 | 337 ft | 56 kts | 261° |
| 2026-04-25 11:57 | 52.45030 | 20.64396 | 337 ft | 11 kts | 214° |
| 2026-04-25 11:57 | 52.44960 | 20.64386 | 333 ft | 10 kts | 180° |
| 2026-04-25 11:58 | 52.44890 | 20.64381 | 337 ft | 10 kts | 183° |
| 2026-04-25 11:58 | 52.44822 | 20.64375 | 337 ft | 10 kts | 184° |
| 2026-04-25 11:58 | 52.44756 | 20.64367 | 335 ft | 9 kts | 184° |
| 2026-04-25 11:58 | 52.44713 | 20.64390 | 337 ft | 6 kts | 119° |
| 2026-04-25 11:59 | 52.44712 | 20.64462 | 336 ft | 6 kts | 84° |
| 2026-04-25 11:59 | 52.44719 | 20.64532 | 333 ft | 6 kts | 75° |
| 2026-04-25 11:59 | 52.44730 | 20.64599 | 335 ft | 6 kts | 77° |
| 2026-04-25 12:00 | 52.44742 | 20.64734 | 334 ft | 6 kts | 82° |
| 2026-04-25 12:00 | 52.44748 | 20.64799 | 335 ft | 6 kts | 82° |
| 2026-04-25 12:00 | 52.44753 | 20.64855 | 335 ft | 6 kts | 82° |
| 2026-04-25 12:01 | 52.44756 | 20.64894 | 337 ft | 6 kts | 82° |
| 2026-04-25 12:01 | 52.44759 | 20.64926 | 337 ft | 6 kts | 82° |
| 2026-04-25 12:02 | 52.44765 | 20.64988 | 337 ft | 5 kts | 81° |
| 2026-04-25 12:02 | 52.44761 | 20.65044 | 336 ft | 5 kts | 147° |
| 2026-04-25 12:02 | 52.44736 | 20.65030 | 337 ft | 4 kts | 205° |
| 2026-04-25 12:03 | 52.44722 | 20.65018 | 333 ft | 1 kts | 206° |
| 2026-04-25 12:03 | 52.44721 | 20.65018 | 337 ft | 0 kts | 206° |